sensor_id;sensor_type;location;lat;lon;timestamp;pressure;altitude;pressure_sealevel;temperature;humidity
77706;BME280;66874;45.274;5.880;2024-03-22T00:00:30;99560.63;;;12.58;61.46
77706;BME280;66874;45.274;5.880;2024-03-22T00:02:56;99568.50;;;12.56;61.46
77706;BME280;66874;45.274;5.880;2024-03-22T00:05:21;99573.78;;;12.55;61.72
77706;BME280;66874;45.274;5.880;2024-03-22T00:07:47;99566.81;;;12.54;61.67
77706;BME280;66874;45.274;5.880;2024-03-22T00:10:13;99567.72;;;12.51;61.77
77706;BME280;66874;45.274;5.880;2024-03-22T00:12:39;99571.25;;;12.49;62.09
77706;BME280;66874;45.274;5.880;2024-03-22T00:15:05;99568.69;;;12.47;62.00
77706;BME280;66874;45.274;5.880;2024-03-22T00:17:30;99566.09;;;12.44;62.17
77706;BME280;66874;45.274;5.880;2024-03-22T00:19:56;99562.72;;;12.39;62.34
77706;BME280;66874;45.274;5.880;2024-03-22T00:22:21;99559.28;;;12.35;62.48
77706;BME280;66874;45.274;5.880;2024-03-22T00:24:47;99558.44;;;12.33;62.61
77706;BME280;66874;45.274;5.880;2024-03-22T00:27:12;99556.72;;;12.32;62.72
77706;BME280;66874;45.274;5.880;2024-03-22T00:29:38;99557.56;;;12.34;62.68
77706;BME280;66874;45.274;5.880;2024-03-22T00:32:04;99568.91;;;12.35;62.78
77706;BME280;66874;45.274;5.880;2024-03-22T00:34:29;99555.84;;;12.32;62.78
77706;BME280;66874;45.274;5.880;2024-03-22T00:36:55;99567.28;;;12.28;62.83
77706;BME280;66874;45.274;5.880;2024-03-22T00:39:20;99558.66;;;12.21;63.01
77706;BME280;66874;45.274;5.880;2024-03-22T00:41:46;99564.84;;;12.18;63.30
77706;BME280;66874;45.274;5.880;2024-03-22T00:44:11;99557.94;;;12.13;63.35
77706;BME280;66874;45.274;5.880;2024-03-22T00:46:36;99561.47;;;12.10;63.47
77706;BME280;66874;45.274;5.880;2024-03-22T00:49:02;99561.53;;;12.07;63.58
77706;BME280;66874;45.274;5.880;2024-03-22T00:51:28;99561.63;;;12.01;63.92
77706;BME280;66874;45.274;5.880;2024-03-22T00:53:53;99561.69;;;11.98;64.13
77706;BME280;66874;45.274;5.880;2024-03-22T00:56:18;99566.09;;;11.96;64.09
77706;BME280;66874;45.274;5.880;2024-03-22T00:58:44;99565.25;;;11.95;64.21
77706;BME280;66874;45.274;5.880;2024-03-22T01:01:09;99568.72;;;11.96;64.32
77706;BME280;66874;45.274;5.880;2024-03-22T01:03:34;99567.88;;;11.95;64.45
77706;BME280;66874;45.274;5.880;2024-03-22T01:06:01;99559.09;;;11.95;64.37
77706;BME280;66874;45.274;5.880;2024-03-22T01:08:27;99558.28;;;11.91;64.46
77706;BME280;66874;45.274;5.880;2024-03-22T01:10:52;99563.56;;;11.90;64.63
77706;BME280;66874;45.274;5.880;2024-03-22T01:13:18;99565.41;;;11.85;64.68
77706;BME280;66874;45.274;5.880;2024-03-22T01:15:43;99559.31;;;11.84;64.70
77706;BME280;66874;45.274;5.880;2024-03-22T01:18:09;99556.69;;;11.81;64.82
77706;BME280;66874;45.274;5.880;2024-03-22T01:20:34;99559.41;;;11.75;64.98
77706;BME280;66874;45.274;5.880;2024-03-22T01:23:00;99554.19;;;11.72;65.15
77706;BME280;66874;45.274;5.880;2024-03-22T01:25:27;99556.88;;;11.70;65.36
77706;BME280;66874;45.274;5.880;2024-03-22T01:27:53;99555.09;;;11.71;65.29
77706;BME280;66874;45.274;5.880;2024-03-22T01:30:18;99551.63;;;11.70;65.43
77706;BME280;66874;45.274;5.880;2024-03-22T01:32:43;99537.66;;;11.70;65.30
77706;BME280;66874;45.274;5.880;2024-03-22T01:35:09;99544.66;;;11.68;65.42
77706;BME280;66874;45.274;5.880;2024-03-22T01:37:34;99539.47;;;11.66;65.58
77706;BME280;66874;45.274;5.880;2024-03-22T01:40:00;99524.63;;;11.64;65.57
77706;BME280;66874;45.274;5.880;2024-03-22T01:42:25;99530.75;;;11.64;65.63
77706;BME280;66874;45.274;5.880;2024-03-22T01:44:50;99527.28;;;11.62;65.73
77706;BME280;66874;45.274;5.880;2024-03-22T01:47:16;99524.75;;;11.56;65.94
77706;BME280;66874;45.274;5.880;2024-03-22T01:49:43;99516.97;;;11.52;66.04
77706;BME280;66874;45.274;5.880;2024-03-22T01:52:08;99520.53;;;11.47;66.10
77706;BME280;66874;45.274;5.880;2024-03-22T01:54:34;99513.56;;;11.46;66.22
77706;BME280;66874;45.274;5.880;2024-03-22T01:57:00;99518.84;;;11.43;66.39
77706;BME280;66874;45.274;5.880;2024-03-22T01:59:28;99515.38;;;11.43;66.26
77706;BME280;66874;45.274;5.880;2024-03-22T02:01:53;99517.13;;;11.42;66.53
77706;BME280;66874;45.274;5.880;2024-03-22T02:04:19;99513.66;;;11.42;66.57
77706;BME280;66874;45.274;5.880;2024-03-22T02:06:44;99516.28;;;11.42;66.52
77706;BME280;66874;45.274;5.880;2024-03-22T02:09:09;99511.91;;;11.42;66.63
77706;BME280;66874;45.274;5.880;2024-03-22T02:11:36;99511.91;;;11.41;66.57
77706;BME280;66874;45.274;5.880;2024-03-22T02:14:02;99508.47;;;11.37;66.61
77706;BME280;66874;45.274;5.880;2024-03-22T02:16:28;99512.00;;;11.33;66.47
77706;BME280;66874;45.274;5.880;2024-03-22T02:18:53;99510.34;;;11.29;66.99
77706;BME280;66874;45.274;5.880;2024-03-22T02:21:19;99506.94;;;11.24;67.08
77706;BME280;66874;45.274;5.880;2024-03-22T02:23:44;99505.22;;;11.21;67.11
77706;BME280;66874;45.274;5.880;2024-03-22T02:26:09;99509.63;;;11.19;67.33
77706;BME280;66874;45.274;5.880;2024-03-22T02:28:35;99506.13;;;11.17;67.40
77706;BME280;66874;45.274;5.880;2024-03-22T02:31:04;99508.75;;;11.17;67.37
77706;BME280;66874;45.274;5.880;2024-03-22T02:33:30;99509.63;;;11.18;67.45
77706;BME280;66874;45.274;5.880;2024-03-22T02:35:55;99510.47;;;11.18;67.41
77706;BME280;66874;45.274;5.880;2024-03-22T02:38:21;99506.13;;;11.17;67.41
77706;BME280;66874;45.274;5.880;2024-03-22T02:40:48;99504.41;;;11.16;67.61
77706;BME280;66874;45.274;5.880;2024-03-22T02:43:14;99508.78;;;11.14;67.73
77706;BME280;66874;45.274;5.880;2024-03-22T02:45:39;99503.59;;;11.13;67.58
77706;BME280;66874;45.274;5.880;2024-03-22T02:48:05;99501.88;;;11.12;67.63
77706;BME280;66874;45.274;5.880;2024-03-22T02:50:35;99498.41;;;11.11;67.54
77706;BME280;66874;45.274;5.880;2024-03-22T02:53:00;99500.16;;;11.11;67.77
77706;BME280;66874;45.274;5.880;2024-03-22T02:55:26;99492.31;;;11.09;67.68
77706;BME280;66874;45.274;5.880;2024-03-22T02:57:51;99491.44;;;11.09;67.84
77706;BME280;66874;45.274;5.880;2024-03-22T03:00:17;99487.13;;;11.05;67.60
77706;BME280;66874;45.274;5.880;2024-03-22T03:02:43;99480.28;;;10.96;67.81
77706;BME280;66874;45.274;5.880;2024-03-22T03:05:08;99483.81;;;10.93;68.02
77706;BME280;66874;45.274;5.880;2024-03-22T03:07:35;99484.69;;;10.92;68.18
77706;BME280;66874;45.274;5.880;2024-03-22T03:10:00;99484.69;;;10.92;68.09
77706;BME280;66874;45.274;5.880;2024-03-22T03:12:26;99475.09;;;10.93;68.09
77706;BME280;66874;45.274;5.880;2024-03-22T03:14:51;99482.91;;;10.94;67.86
77706;BME280;66874;45.274;5.880;2024-03-22T03:17:16;99477.72;;;10.93;67.94
77706;BME280;66874;45.274;5.880;2024-03-22T03:19:42;99474.22;;;10.92;68.10
77706;BME280;66874;45.274;5.880;2024-03-22T03:22:07;99479.47;;;10.92;68.00
77706;BME280;66874;45.274;5.880;2024-03-22T03:24:32;99482.03;;;10.94;67.84
77706;BME280;66874;45.274;5.880;2024-03-22T03:26:58;99484.66;;;10.94;67.93
77706;BME280;66874;45.274;5.880;2024-03-22T03:29:23;99489.91;;;10.94;67.68
77706;BME280;66874;45.274;5.880;2024-03-22T03:31:48;99489.94;;;10.92;67.85
77706;BME280;66874;45.274;5.880;2024-03-22T03:34:14;99477.75;;;10.90;67.84
77706;BME280;66874;45.274;5.880;2024-03-22T03:36:39;99481.25;;;10.87;67.78
77706;BME280;66874;45.274;5.880;2024-03-22T03:39:05;99483.03;;;10.85;67.85
77706;BME280;66874;45.274;5.880;2024-03-22T03:41:30;99494.41;;;10.83;67.86
77706;BME280;66874;45.274;5.880;2024-03-22T03:43:56;99495.28;;;10.83;67.82
77706;BME280;66874;45.274;5.880;2024-03-22T03:46:21;99494.44;;;10.81;67.83
77706;BME280;66874;45.274;5.880;2024-03-22T03:48:47;99489.22;;;10.81;67.92
77706;BME280;66874;45.274;5.880;2024-03-22T03:51:12;99479.63;;;10.80;67.86
77706;BME280;66874;45.274;5.880;2024-03-22T03:53:37;99472.66;;;10.79;67.94
77706;BME280;66874;45.274;5.880;2024-03-22T03:56:03;99463.09;;;10.75;67.98
77706;BME280;66874;45.274;5.880;2024-03-22T03:58:28;99466.66;;;10.72;68.24
77706;BME280;66874;45.274;5.880;2024-03-22T04:00:54;99464.94;;;10.68;68.13
77706;BME280;66874;45.274;5.880;2024-03-22T04:03:19;99469.31;;;10.69;68.22
77706;BME280;66874;45.274;5.880;2024-03-22T04:05:44;99464.06;;;10.68;68.27
77706;BME280;66874;45.274;5.880;2024-03-22T04:08:10;99461.47;;;10.69;68.12
77706;BME280;66874;45.274;5.880;2024-03-22T04:10:35;99464.03;;;10.72;68.19
77706;BME280;66874;45.274;5.880;2024-03-22T04:13:01;99459.63;;;10.74;68.05
77706;BME280;66874;45.274;5.880;2024-03-22T04:15:26;99452.63;;;10.75;68.13
77706;BME280;66874;45.274;5.880;2024-03-22T04:17:51;99455.25;;;10.77;68.18
77706;BME280;66874;45.274;5.880;2024-03-22T04:20:17;99447.41;;;10.75;67.97
77706;BME280;66874;45.274;5.880;2024-03-22T04:22:42;99450.88;;;10.75;68.20
77706;BME280;66874;45.274;5.880;2024-03-22T04:25:08;99446.59;;;10.71;68.31
77706;BME280;66874;45.274;5.880;2024-03-22T04:27:36;99450.13;;;10.69;68.26
77706;BME280;66874;45.274;5.880;2024-03-22T04:30:01;99457.16;;;10.65;68.27
77706;BME280;66874;45.274;5.880;2024-03-22T04:32:27;99461.53;;;10.65;68.33
77706;BME280;66874;45.274;5.880;2024-03-22T04:34:52;99463.25;;;10.64;68.41
77706;BME280;66874;45.274;5.880;2024-03-22T04:37:17;99469.38;;;10.65;68.14
77706;BME280;66874;45.274;5.880;2024-03-22T04:39:46;99464.09;;;10.66;68.28
77706;BME280;66874;45.274;5.880;2024-03-22T04:42:11;99471.06;;;10.67;68.34
77706;BME280;66874;45.274;5.880;2024-03-22T04:44:36;99470.19;;;10.67;68.22
77706;BME280;66874;45.274;5.880;2024-03-22T04:47:02;99474.53;;;10.68;68.30
77706;BME280;66874;45.274;5.880;2024-03-22T04:49:27;99474.53;;;10.68;68.59
77706;BME280;66874;45.274;5.880;2024-03-22T04:51:52;99477.22;;;10.65;68.55
77706;BME280;66874;45.274;5.880;2024-03-22T04:54:18;99478.13;;;10.62;68.36
77706;BME280;66874;45.274;5.880;2024-03-22T04:56:43;99482.44;;;10.63;68.55
77706;BME280;66874;45.274;5.880;2024-03-22T04:59:09;99478.94;;;10.64;68.32
77706;BME280;66874;45.274;5.880;2024-03-22T05:01:34;99486.81;;;10.63;68.54
77706;BME280;66874;45.274;5.880;2024-03-22T05:03:59;99492.94;;;10.62;68.37
77706;BME280;66874;45.274;5.880;2024-03-22T05:06:25;99499.00;;;10.64;68.06
77706;BME280;66874;45.274;5.880;2024-03-22T05:08:50;99490.31;;;10.63;68.42
77706;BME280;66874;45.274;5.880;2024-03-22T05:11:15;99499.88;;;10.64;68.45
77706;BME280;66874;45.274;5.880;2024-03-22T05:13:41;99506.00;;;10.65;68.35
77706;BME280;66874;45.274;5.880;2024-03-22T05:16:07;99508.56;;;10.68;68.33
77706;BME280;66874;45.274;5.880;2024-03-22T05:18:32;99503.34;;;10.66;68.47
77706;BME280;66874;45.274;5.880;2024-03-22T05:20:58;99513.84;;;10.65;68.48
77706;BME280;66874;45.274;5.880;2024-03-22T05:23:23;99520.81;;;10.64;68.53
77706;BME280;66874;45.274;5.880;2024-03-22T05:25:48;99526.94;;;10.63;68.46
77706;BME280;66874;45.274;5.880;2024-03-22T05:28:14;99530.44;;;10.62;68.66
77706;BME280;66874;45.274;5.880;2024-03-22T05:30:39;99531.34;;;10.61;68.48
77706;BME280;66874;45.274;5.880;2024-03-22T05:33:04;99541.78;;;10.61;68.71
77706;BME280;66874;45.274;5.880;2024-03-22T05:35:30;99537.44;;;10.59;68.79
77706;BME280;66874;45.274;5.880;2024-03-22T05:37:55;99533.13;;;10.58;68.79
77706;BME280;66874;45.274;5.880;2024-03-22T05:40:21;99544.44;;;10.57;68.91
77706;BME280;66874;45.274;5.880;2024-03-22T05:42:46;99534.88;;;10.56;69.00
77706;BME280;66874;45.274;5.880;2024-03-22T05:45:11;99540.97;;;10.56;69.10
77706;BME280;66874;45.274;5.880;2024-03-22T05:47:37;99528.81;;;10.54;69.05
77706;BME280;66874;45.274;5.880;2024-03-22T05:50:03;99524.44;;;10.54;69.04
77706;BME280;66874;45.274;5.880;2024-03-22T05:52:32;99524.44;;;10.54;69.02
77706;BME280;66874;45.274;5.880;2024-03-22T05:54:58;99513.97;;;10.54;69.01
77706;BME280;66874;45.274;5.880;2024-03-22T05:57:23;99513.03;;;10.58;69.19
77706;BME280;66874;45.274;5.880;2024-03-22T05:59:49;99506.88;;;10.61;69.10
77706;BME280;66874;45.274;5.880;2024-03-22T06:02:14;99508.63;;;10.63;69.03
77706;BME280;66874;45.274;5.880;2024-03-22T06:04:40;99504.22;;;10.67;69.00
77706;BME280;66874;45.274;5.880;2024-03-22T06:07:06;99499.78;;;10.72;69.16
77706;BME280;66874;45.274;5.880;2024-03-22T06:09:33;99501.47;;;10.76;69.10
77706;BME280;66874;45.274;5.880;2024-03-22T06:12:20;99504.91;;;10.80;68.95
77706;BME280;66874;45.274;5.880;2024-03-22T06:14:47;99506.59;;;10.84;69.04
77706;BME280;66874;45.274;5.880;2024-03-22T06:17:13;99503.94;;;10.88;68.85
77706;BME280;66874;45.274;5.880;2024-03-22T06:19:39;99501.22;;;10.94;68.87
77706;BME280;66874;45.274;5.880;2024-03-22T06:22:05;99500.31;;;10.98;68.83
77706;BME280;66874;45.274;5.880;2024-03-22T06:24:30;99501.13;;;11.04;68.71
77706;BME280;66874;45.274;5.880;2024-03-22T06:26:56;99501.06;;;11.08;68.65
77706;BME280;66874;45.274;5.880;2024-03-22T06:29:21;99506.13;;;11.19;68.71
77706;BME280;66874;45.274;5.880;2024-03-22T06:31:47;99505.13;;;11.28;68.43
77706;BME280;66874;45.274;5.880;2024-03-22T06:34:12;99511.06;;;11.39;68.37
77706;BME280;66874;45.274;5.880;2024-03-22T06:36:38;99517.09;;;11.45;68.17
77706;BME280;66874;45.274;5.880;2024-03-22T06:39:03;99511.75;;;11.52;68.08
77706;BME280;66874;45.274;5.880;2024-03-22T06:41:32;99509.13;;;11.52;68.08
77706;BME280;66874;45.274;5.880;2024-03-22T06:43:58;99509.91;;;11.57;68.14
77706;BME280;66874;45.274;5.880;2024-03-22T06:46:23;99503.75;;;11.59;67.87
77706;BME280;66874;45.274;5.880;2024-03-22T06:48:50;99504.53;;;11.64;67.75
77706;BME280;66874;45.274;5.880;2024-03-22T06:51:15;99505.34;;;11.68;67.88
77706;BME280;66874;45.274;5.880;2024-03-22T06:53:41;99505.25;;;11.74;67.65
77706;BME280;66874;45.274;5.880;2024-03-22T06:56:06;99504.28;;;11.81;67.50
77706;BME280;66874;45.274;5.880;2024-03-22T06:58:36;99495.41;;;11.90;67.07
77706;BME280;66874;45.274;5.880;2024-03-22T07:01:02;99500.50;;;11.97;67.31
77706;BME280;66874;45.274;5.880;2024-03-22T07:03:27;99493.41;;;12.04;67.33
77706;BME280;66874;45.274;5.880;2024-03-22T07:05:53;99494.19;;;12.09;67.24
77706;BME280;66874;45.274;5.880;2024-03-22T07:08:18;99494.09;;;12.15;67.21
77706;BME280;66874;45.274;5.880;2024-03-22T07:10:43;99497.47;;;12.20;67.26
77706;BME280;66874;45.274;5.880;2024-03-22T07:13:10;99487.81;;;12.23;67.08
77706;BME280;66874;45.274;5.880;2024-03-22T07:15:36;99495.69;;;12.23;67.10
77706;BME280;66874;45.274;5.880;2024-03-22T07:18:01;99496.56;;;12.23;66.93
77706;BME280;66874;45.274;5.880;2024-03-22T07:20:27;99500.84;;;12.26;66.71
77706;BME280;66874;45.274;5.880;2024-03-22T07:22:53;99506.06;;;12.29;66.71
77706;BME280;66874;45.274;5.880;2024-03-22T07:25:18;99503.31;;;12.35;66.82
77706;BME280;66874;45.274;5.880;2024-03-22T07:27:44;99500.50;;;12.44;66.95
77706;BME280;66874;45.274;5.880;2024-03-22T07:30:09;99509.50;;;12.32;66.81
77706;BME280;66874;45.274;5.880;2024-03-22T07:32:35;99508.88;;;12.18;67.21
77706;BME280;66874;45.274;5.880;2024-03-22T07:35:02;99514.34;;;12.07;67.20
77706;BME280;66874;45.274;5.880;2024-03-22T07:37:28;99517.03;;;12.03;67.03
77706;BME280;66874;45.274;5.880;2024-03-22T07:39:53;99515.22;;;12.06;67.03
77706;BME280;66874;45.274;5.880;2024-03-22T07:42:18;99522.22;;;12.06;67.13
77706;BME280;66874;45.274;5.880;2024-03-22T07:44:44;99516.16;;;12.02;67.32
77706;BME280;66874;45.274;5.880;2024-03-22T07:47:10;99520.41;;;12.09;67.21
77706;BME280;66874;45.274;5.880;2024-03-22T07:49:35;99518.34;;;12.25;66.98
77706;BME280;66874;45.274;5.880;2024-03-22T07:52:02;99519.84;;;12.40;67.03
77706;BME280;66874;45.274;5.880;2024-03-22T07:54:27;99524.03;;;12.50;66.88
77706;BME280;66874;45.274;5.880;2024-03-22T07:56:53;99522.09;;;12.58;66.96
77706;BME280;66874;45.274;5.880;2024-03-22T07:59:18;99519.34;;;12.64;66.66
77706;BME280;66874;45.274;5.880;2024-03-22T08:01:44;99516.56;;;12.72;66.42
77706;BME280;66874;45.274;5.880;2024-03-22T08:04:09;99522.53;;;12.80;65.94
77706;BME280;66874;45.274;5.880;2024-03-22T08:06:34;99519.53;;;12.97;65.40
77706;BME280;66874;45.274;5.880;2024-03-22T08:09:00;99517.34;;;13.17;65.29
77706;BME280;66874;45.274;5.880;2024-03-22T08:11:27;99520.94;;;13.52;64.31
77706;BME280;66874;45.274;5.880;2024-03-22T08:13:53;99519.41;;;13.79;63.47
77706;BME280;66874;45.274;5.880;2024-03-22T08:16:26;99516.75;;;13.81;63.38
77706;BME280;66874;45.274;5.880;2024-03-22T08:18:52;99514.25;;;13.76;63.28
77706;BME280;66874;45.274;5.880;2024-03-22T08:21:17;99519.59;;;13.72;63.33
77706;BME280;66874;45.274;5.880;2024-03-22T08:23:43;99518.84;;;13.66;63.52
77706;BME280;66874;45.274;5.880;2024-03-22T08:26:08;99518.13;;;13.60;63.68
77706;BME280;66874;45.274;5.880;2024-03-22T08:28:33;99516.78;;;13.79;63.42
77706;BME280;66874;45.274;5.880;2024-03-22T08:31:03;99511.50;;;14.46;61.53
77706;BME280;66874;45.274;5.880;2024-03-22T08:33:29;99506.72;;;14.92;60.03
77706;BME280;66874;45.274;5.880;2024-03-22T08:35:54;99500.03;;;15.09;59.25
77706;BME280;66874;45.274;5.880;2024-03-22T08:38:20;99501.13;;;15.02;59.50
77706;BME280;66874;45.274;5.880;2024-03-22T08:40:45;99501.81;;;14.79;60.22
77706;BME280;66874;45.274;5.880;2024-03-22T08:43:10;99498.84;;;14.60;60.59
77706;BME280;66874;45.274;5.880;2024-03-22T08:45:36;99499.97;;;14.52;61.42
77706;BME280;66874;45.274;5.880;2024-03-22T08:48:01;99509.47;;;14.57;61.21
77706;BME280;66874;45.274;5.880;2024-03-22T08:50:27;99501.53;;;14.59;61.17
77706;BME280;66874;45.274;5.880;2024-03-22T08:52:52;99502.22;;;14.65;60.96
77706;BME280;66874;45.274;5.880;2024-03-22T08:55:18;99491.38;;;14.76;60.89
77706;BME280;66874;45.274;5.880;2024-03-22T08:57:43;99488.16;;;14.96;60.66
77706;BME280;66874;45.274;5.880;2024-03-22T09:00:11;99486.47;;;15.22;60.60
77706;BME280;66874;45.274;5.880;2024-03-22T09:02:36;99490.13;;;15.46;59.71
77706;BME280;66874;45.274;5.880;2024-03-22T09:05:03;99478.47;;;15.53;59.57
77706;BME280;66874;45.274;5.880;2024-03-22T09:07:28;99484.59;;;15.53;59.28
77706;BME280;66874;45.274;5.880;2024-03-22T09:09:54;99484.53;;;15.55;59.13
77706;BME280;66874;45.274;5.880;2024-03-22T09:12:19;99477.16;;;15.66;58.97
77706;BME280;66874;45.274;5.880;2024-03-22T09:14:45;99479.38;;;15.78;59.14
77706;BME280;66874;45.274;5.880;2024-03-22T09:17:10;99483.84;;;16.03;58.51
77706;BME280;66874;45.274;5.880;2024-03-22T09:19:36;99481.47;;;16.20;58.30
77706;BME280;66874;45.274;5.880;2024-03-22T09:22:02;99469.88;;;16.24;57.77
77706;BME280;66874;45.274;5.880;2024-03-22T09:24:28;99474.78;;;16.35;57.32
77706;BME280;66874;45.274;5.880;2024-03-22T09:26:53;99478.16;;;16.39;56.32
77706;BME280;66874;45.274;5.880;2024-03-22T09:29:19;99474.19;;;16.27;56.67
77706;BME280;66874;45.274;5.880;2024-03-22T09:31:44;99473.81;;;16.38;56.29
77706;BME280;66874;45.274;5.880;2024-03-22T09:34:12;99475.19;;;16.48;56.23
77706;BME280;66874;45.274;5.880;2024-03-22T09:36:37;99470.75;;;16.48;55.90
77706;BME280;66874;45.274;5.880;2024-03-22T09:39:04;99463.41;;;16.56;56.07
77706;BME280;66874;45.274;5.880;2024-03-22T09:41:31;99463.09;;;16.66;55.72
77706;BME280;66874;45.274;5.880;2024-03-22T09:43:58;99459.81;;;16.82;55.61
77706;BME280;66874;45.274;5.880;2024-03-22T09:46:25;99467.16;;;16.98;55.52
77706;BME280;66874;45.274;5.880;2024-03-22T09:48:52;99455.75;;;17.19;54.48
77706;BME280;66874;45.274;5.880;2024-03-22T09:51:19;99448.13;;;17.33;54.51
77706;BME280;66874;45.274;5.880;2024-03-22T09:53:44;99456.22;;;17.51;54.33
77706;BME280;66874;45.274;5.880;2024-03-22T09:56:14;99454.38;;;17.75;53.62
77706;BME280;66874;45.274;5.880;2024-03-22T09:58:41;99453.97;;;18.04;53.77
77706;BME280;66874;45.274;5.880;2024-03-22T10:01:06;99449.06;;;18.36;53.00
77706;BME280;66874;45.274;5.880;2024-03-22T10:03:31;99443.88;;;18.33;52.56
77706;BME280;66874;45.274;5.880;2024-03-22T10:05:57;99442.47;;;18.45;52.25
77706;BME280;66874;45.274;5.880;2024-03-22T10:08:23;99447.97;;;18.40;52.11
77706;BME280;66874;45.274;5.880;2024-03-22T10:10:48;99445.47;;;18.37;51.88
77706;BME280;66874;45.274;5.880;2024-03-22T10:13:14;99444.72;;;18.15;52.14
77706;BME280;66874;45.274;5.880;2024-03-22T10:15:39;99447.47;;;18.32;52.62
77706;BME280;66874;45.274;5.880;2024-03-22T10:18:04;99443.50;;;18.61;51.90
77706;BME280;66874;45.274;5.880;2024-03-22T10:20:30;99431.75;;;18.87;51.09
77706;BME280;66874;45.274;5.880;2024-03-22T10:22:57;99422.97;;;19.04;50.62
77706;BME280;66874;45.274;5.880;2024-03-22T10:25:26;99418.41;;;19.25;50.41
77706;BME280;66874;45.274;5.880;2024-03-22T10:27:53;99419.38;;;19.41;49.48
77706;BME280;66874;45.274;5.880;2024-03-22T10:30:19;99409.16;;;19.34;49.42
77706;BME280;66874;45.274;5.880;2024-03-22T10:32:45;99413.63;;;19.68;49.21
77706;BME280;66874;45.274;5.880;2024-03-22T10:35:14;99397.81;;;19.84;48.92
77706;BME280;66874;45.274;5.880;2024-03-22T10:37:39;99399.41;;;20.04;48.43
77706;BME280;66874;45.274;5.880;2024-03-22T10:40:05;99391.16;;;20.26;47.83
77706;BME280;66874;45.274;5.880;2024-03-22T10:42:40;99386.56;;;20.45;47.60
77706;BME280;66874;45.274;5.880;2024-03-22T10:45:08;99387.06;;;20.69;46.54
77706;BME280;66874;45.274;5.880;2024-03-22T10:47:35;99379.34;;;20.64;46.28
77706;BME280;66874;45.274;5.880;2024-03-22T10:52:33;99372.97;;;20.67;46.33
77706;BME280;66874;45.274;5.880;2024-03-22T10:55:02;99367.75;;;20.97;46.66
77706;BME280;66874;45.274;5.880;2024-03-22T10:57:30;99365.00;;;21.44;45.15
77706;BME280;66874;45.274;5.880;2024-03-22T10:59:55;99351.66;;;21.60;45.25
77706;BME280;66874;45.274;5.880;2024-03-22T11:02:23;99342.75;;;21.76;44.50
77706;BME280;66874;45.274;5.880;2024-03-22T11:04:56;99343.00;;;21.71;44.08
77706;BME280;66874;45.274;5.880;2024-03-22T11:07:22;99334.84;;;21.74;43.96
77706;BME280;66874;45.274;5.880;2024-03-22T11:09:56;99331.91;;;21.93;43.41
77706;BME280;66874;45.274;5.880;2024-03-22T11:12:21;99321.09;;;22.10;43.49
77706;BME280;66874;45.274;5.880;2024-03-22T11:14:50;99319.94;;;22.29;42.48
77706;BME280;66874;45.274;5.880;2024-03-22T11:17:17;99318.69;;;22.49;42.26
77706;BME280;66874;45.274;5.880;2024-03-22T11:19:42;99306.78;;;22.81;41.97
77706;BME280;66874;45.274;5.880;2024-03-22T11:22:08;99298.13;;;23.45;41.35
77706;BME280;66874;45.274;5.880;2024-03-22T11:24:33;99291.97;;;23.70;40.41
77706;BME280;66874;45.274;5.880;2024-03-22T11:26:58;99283.84;;;23.84;40.08
77706;BME280;66874;45.274;5.880;2024-03-22T11:29:24;99279.66;;;23.93;39.84
77706;BME280;66874;45.274;5.880;2024-03-22T11:31:50;99275.88;;;24.21;39.28
77706;BME280;66874;45.274;5.880;2024-03-22T11:34:15;99267.75;;;24.59;39.46
77706;BME280;66874;45.274;5.880;2024-03-22T11:36:40;99263.97;;;24.38;38.42
77706;BME280;66874;45.274;5.880;2024-03-22T11:39:06;99249.84;;;24.72;38.81
77706;BME280;66874;45.274;5.880;2024-03-22T11:41:32;99248.09;;;25.19;38.19
77706;BME280;66874;45.274;5.880;2024-03-22T11:44:00;99239.88;;;25.33;37.29
77706;BME280;66874;45.274;5.880;2024-03-22T11:46:26;99235.03;;;25.61;37.67
77706;BME280;66874;45.274;5.880;2024-03-22T11:48:53;99227.03;;;26.06;36.58
77706;BME280;66874;45.274;5.880;2024-03-22T11:51:19;99222.63;;;26.16;36.46
77706;BME280;66874;45.274;5.880;2024-03-22T11:53:53;99212.69;;;26.50;35.90
77706;BME280;66874;45.274;5.880;2024-03-22T11:56:21;99201.53;;;26.98;36.06
77706;BME280;66874;45.274;5.880;2024-03-22T11:58:47;99202.53;;;27.18;34.90
77706;BME280;66874;45.274;5.880;2024-03-22T12:01:15;99184.13;;;27.35;34.31
77706;BME280;66874;45.274;5.880;2024-03-22T12:03:43;99179.69;;;27.55;33.51
77706;BME280;66874;45.274;5.880;2024-03-22T12:06:09;99182.28;;;27.35;33.00
77706;BME280;66874;45.274;5.880;2024-03-22T12:08:35;99173.31;;;27.77;32.46
77706;BME280;66874;45.274;5.880;2024-03-22T12:11:03;99167.22;;;28.34;31.98
77706;BME280;66874;45.274;5.880;2024-03-22T12:13:29;99157.22;;;28.75;31.34
77706;BME280;66874;45.274;5.880;2024-03-22T12:15:54;99146.97;;;28.79;31.02
77706;BME280;66874;45.274;5.880;2024-03-22T12:18:19;99142.06;;;28.64;30.70
77706;BME280;66874;45.274;5.880;2024-03-22T12:20:45;99131.44;;;28.53;30.21
77706;BME280;66874;45.274;5.880;2024-03-22T12:23:10;99122.22;;;28.65;29.77
77706;BME280;66874;45.274;5.880;2024-03-22T12:25:36;99115.53;;;28.69;29.41
77706;BME280;66874;45.274;5.880;2024-03-22T12:28:01;99117.91;;;29.02;29.73
77706;BME280;66874;45.274;5.880;2024-03-22T12:30:27;99106.97;;;29.23;29.25
77706;BME280;66874;45.274;5.880;2024-03-22T12:32:52;99103.41;;;29.59;27.60
77706;BME280;66874;45.274;5.880;2024-03-22T12:35:17;99088.56;;;30.01;27.99
77706;BME280;66874;45.274;5.880;2024-03-22T12:37:43;99083.44;;;30.25;26.94
77706;BME280;66874;45.274;5.880;2024-03-22T12:40:09;99080.19;;;30.39;26.72
77706;BME280;66874;45.274;5.880;2024-03-22T12:42:34;99074.16;;;30.10;27.14
77706;BME280;66874;45.274;5.880;2024-03-22T12:45:00;99063.69;;;29.52;28.42
77706;BME280;66874;45.274;5.880;2024-03-22T12:47:25;99057.50;;;29.14;28.26
77706;BME280;66874;45.274;5.880;2024-03-22T12:49:51;99053.91;;;29.23;28.44
77706;BME280;66874;45.274;5.880;2024-03-22T12:52:16;99044.94;;;29.87;27.74
77706;BME280;66874;45.274;5.880;2024-03-22T12:54:42;99039.94;;;29.92;27.51